Time;durP1;ratioP1;P1;durP2;ratioP2;P2;SDS_P1;SDS_P2;PMS_P1;PMS_P2;Temp;Humidity;BMP_temperature;BMP_pressure;BME280_temperature;BME280_humidity;BME280_pressure;Samples;Min_cycle;Max_cycle;Signal;HPM_P1;HPM_P2
2021/10/16 00:00:13;;;;;;;16.07;9.87;;;7.70;99.90;;;;;;5096482;28;20450;-57
2021/10/16 00:02:42;;;;;;;12.50;8.43;;;7.70;99.90;;;;;;5104252;28;20947;-57
2021/10/16 00:05:10;;;;;;;14.67;9.27;;;7.70;99.90;;;;;;5097289;28;20495;-57
2021/10/16 00:07:37;;;;;;;15.63;9.10;;;7.70;99.90;;;;;;5094368;28;20469;-57
2021/10/16 00:10:05;;;;;;;13.30;9.30;;;7.60;99.90;;;;;;5095510;28;20452;-57
2021/10/16 00:12:32;;;;;;;16.00;9.57;;;7.60;99.90;;;;;;5101193;28;20448;-58
2021/10/16 00:14:59;;;;;;;13.77;9.50;;;7.60;99.90;;;;;;5096421;28;20450;-57
2021/10/16 00:17:27;;;;;;;17.57;9.30;;;7.60;99.90;;;;;;5096693;28;20517;-57
2021/10/16 00:19:55;;;;;;;12.40;8.90;;;7.50;99.90;;;;;;5100684;28;21015;-57
2021/10/16 00:22:22;;;;;;;15.27;8.47;;;7.50;99.90;;;;;;5077943;28;20596;-57
2021/10/16 00:24:49;;;;;;;14.93;9.60;;;7.50;99.90;;;;;;5074960;28;20524;-57
2021/10/16 00:27:17;;;;;;;13.20;8.57;;;7.50;99.90;;;;;;5074641;28;20973;-57
2021/10/16 00:29:44;;;;;;;15.77;9.20;;;7.50;99.90;;;;;;5102787;28;20854;-57
2021/10/16 00:32:11;;;;;;;14.20;9.00;;;7.30;99.90;;;;;;5114769;28;20474;-57
2021/10/16 00:34:38;;;;;;;12.80;8.00;;;7.30;99.90;;;;;;5096449;28;20862;-57
2021/10/16 00:37:06;;;;;;;14.83;8.93;;;7.40;99.90;;;;;;5114058;28;20525;-57
2021/10/16 00:39:33;;;;;;;12.40;9.40;;;7.30;99.90;;;;;;5114585;28;20529;-57
2021/10/16 00:42:01;;;;;;;20.27;11.20;;;7.30;99.90;;;;;;5113964;28;20950;-58
2021/10/16 00:44:28;;;;;;;19.20;10.80;;;7.30;99.90;;;;;;5106913;28;20448;-58
2021/10/16 00:46:58;;;;;;;17.40;11.67;;;7.30;99.90;;;;;;5113545;28;20549;-57
2021/10/16 00:49:25;;;;;;;18.83;11.93;;;7.30;99.90;;;;;;5093512;28;20510;-58
2021/10/16 00:51:52;;;;;;;18.10;12.10;;;7.20;99.90;;;;;;5097832;22;20614;-54
2021/10/16 00:54:22;;;;;;;20.70;11.90;;;7.20;99.90;;;;;;5074175;28;20511;-54
2021/10/16 00:56:50;;;;;;;19.33;12.60;;;7.20;99.90;;;;;;5078145;28;20438;-53
2021/10/16 00:59:18;;;;;;;22.20;13.00;;;7.20;99.90;;;;;;5094454;28;20535;-53
2021/10/16 01:01:46;;;;;;;18.20;11.33;;;7.10;99.90;;;;;;5075153;28;20471;-54
2021/10/16 01:04:14;;;;;;;18.50;12.63;;;7.10;99.90;;;;;;5053910;28;20466;-53
2021/10/16 01:06:42;;;;;;;22.33;13.27;;;7.00;99.90;;;;;;5057123;28;20443;-54
2021/10/16 01:09:09;;;;;;;16.50;11.77;;;7.10;99.90;;;;;;5049427;28;20448;-54
2021/10/16 01:11:49;;;;;;;16.43;11.23;;;7.00;99.90;;;;;;5056747;28;20470;-54
2021/10/16 01:14:16;;;;;;;21.60;13.03;;;7.00;99.90;;;;;;5051382;28;21022;-54
2021/10/16 01:16:45;;;;;;;18.00;11.10;;;6.90;99.90;;;;;;5053074;28;20452;-54
2021/10/16 01:19:13;;;;;;;17.67;10.47;;;6.90;99.90;;;;;;5053567;28;20483;-54
2021/10/16 01:21:45;;;;;;;20.37;12.30;;;6.90;99.90;;;;;;5065136;28;20849;-54
2021/10/16 01:24:13;;;;;;;20.20;11.97;;;6.90;99.90;;;;;;5059995;28;20511;-54
2021/10/16 01:26:42;;;;;;;19.00;12.00;;;6.80;99.90;;;;;;5071550;28;20510;-54
2021/10/16 01:29:10;;;;;;;16.90;11.80;;;6.90;99.90;;;;;;5068010;28;20440;-54
2021/10/16 01:31:38;;;;;;;18.07;11.10;;;6.90;99.90;;;;;;5053121;28;20525;-54
2021/10/16 01:34:05;;;;;;;17.70;11.20;;;6.90;99.90;;;;;;5065348;28;20537;-54
2021/10/16 01:36:44;;;;;;;16.20;11.30;;;6.90;99.90;;;;;;5053480;28;20448;-54
2021/10/16 01:39:12;;;;;;;15.03;10.80;;;6.90;99.90;;;;;;5069951;28;20477;-54
2021/10/16 01:41:40;;;;;;;16.93;11.13;;;6.90;99.90;;;;;;5072400;28;20879;-53
2021/10/16 01:44:08;;;;;;;13.23;10.03;;;6.80;99.90;;;;;;5056671;28;20456;-53
2021/10/16 01:46:35;;;;;;;14.40;10.63;;;6.80;99.90;;;;;;5053187;28;20937;-53
2021/10/16 01:49:08;;;;;;;13.40;10.23;;;6.80;99.90;;;;;;5054180;28;20450;-53
2021/10/16 01:51:35;;;;;;;17.17;10.57;;;6.80;99.90;;;;;;5052588;28;20530;-53
2021/10/16 01:54:04;;;;;;;16.20;11.10;;;6.70;99.90;;;;;;5052763;28;20514;-54
2021/10/16 01:56:31;;;;;;;15.67;10.57;;;6.60;99.90;;;;;;5064706;28;20447;-54
2021/10/16 01:59:10;;;;;;;15.43;10.30;;;6.50;99.90;;;;;;5053931;28;20480;-54
2021/10/16 02:01:37;;;;;;;15.23;10.40;;;6.40;99.90;;;;;;5052852;28;20463;-53
2021/10/16 02:04:04;;;;;;;17.73;10.60;;;6.60;99.90;;;;;;5052970;28;20463;-55
2021/10/16 02:06:31;;;;;;;17.40;11.13;;;6.60;99.90;;;;;;5053854;28;20462;-54
2021/10/16 02:08:58;;;;;;;16.80;10.70;;;6.50;99.90;;;;;;5052767;28;20440;-54
2021/10/16 02:11:26;;;;;;;15.10;10.30;;;6.40;99.90;;;;;;5052078;28;21013;-55
2021/10/16 02:13:53;;;;;;;14.47;11.10;;;6.40;99.90;;;;;;5059168;28;20455;-54
2021/10/16 02:16:20;;;;;;;16.07;10.90;;;6.40;99.90;;;;;;5072267;28;20447;-54
2021/10/16 02:18:47;;;;;;;16.63;11.70;;;6.40;99.90;;;;;;5040667;28;20483;-54
2021/10/16 02:21:14;;;;;;;17.50;11.07;;;6.40;99.90;;;;;;5070968;28;20472;-56
2021/10/16 02:23:41;;;;;;;14.60;10.80;;;6.40;99.90;;;;;;5067251;28;20448;-56
2021/10/16 02:26:08;;;;;;;16.80;11.07;;;6.40;99.90;;;;;;5062469;28;20448;-55
2021/10/16 02:28:36;;;;;;;16.40;11.40;;;6.40;99.90;;;;;;5059014;28;20997;-56
2021/10/16 02:31:04;;;;;;;19.30;11.57;;;6.40;99.90;;;;;;5072023;28;20520;-56
2021/10/16 02:33:30;;;;;;;16.77;11.67;;;6.30;99.90;;;;;;5072277;28;20450;-55
2021/10/16 02:35:57;;;;;;;17.03;11.03;;;6.20;99.90;;;;;;5072192;28;21001;-55
2021/10/16 02:38:25;;;;;;;21.27;12.67;;;6.20;99.90;;;;;;5058062;28;20455;-54
2021/10/16 02:40:51;;;;;;;17.47;11.63;;;6.00;99.90;;;;;;5052082;28;20476;-56
2021/10/16 02:43:19;;;;;;;14.70;10.23;;;6.10;99.90;;;;;;5052048;28;20456;-55
2021/10/16 02:45:47;;;;;;;15.40;10.87;;;6.10;99.90;;;;;;5051681;28;20448;-56
2021/10/16 02:48:14;;;;;;;15.50;10.23;;;6.10;99.90;;;;;;5054865;28;20454;-55
2021/10/16 02:50:41;;;;;;;15.67;10.70;;;6.10;99.90;;;;;;5071376;28;20474;-56
2021/10/16 02:53:08;;;;;;;14.03;10.30;;;6.10;99.90;;;;;;5052943;28;20451;-55
2021/10/16 02:55:35;;;;;;;17.57;11.70;;;6.10;99.90;;;;;;5072131;28;20453;-56
2021/10/16 02:58:02;;;;;;;16.77;11.00;;;6.10;99.90;;;;;;5064204;28;20459;-54
2021/10/16 03:00:29;;;;;;;15.20;10.77;;;6.00;99.90;;;;;;5051141;28;20533;-55
2021/10/16 03:02:58;;;;;;;18.00;10.37;;;5.90;99.90;;;;;;5051956;28;20452;-54
2021/10/16 03:05:25;;;;;;;14.30;10.73;;;5.90;99.90;;;;;;5051712;28;20877;-55
2021/10/16 03:07:52;;;;;;;14.90;10.30;;;5.90;99.90;;;;;;5051624;28;20510;-54
2021/10/16 03:10:19;;;;;;;15.20;10.10;;;5.90;99.90;;;;;;5052322;28;20447;-56
2021/10/16 03:12:46;;;;;;;15.20;10.30;;;5.90;99.90;;;;;;5071656;28;20502;-55
2021/10/16 03:15:13;;;;;;;13.40;10.20;;;5.90;99.90;;;;;;5053502;28;20444;-54
2021/10/16 03:17:40;;;;;;;17.43;10.70;;;5.80;99.90;;;;;;5052520;28;20877;-55
2021/10/16 03:20:10;;;;;;;13.30;10.27;;;5.80;99.90;;;;;;5052894;28;20479;-54
2021/10/16 03:22:37;;;;;;;16.03;10.43;;;5.80;99.90;;;;;;5066686;28;20457;-55
2021/10/16 03:25:05;;;;;;;15.90;10.13;;;5.80;99.90;;;;;;5069879;28;20958;-54
2021/10/16 03:27:32;;;;;;;15.03;10.70;;;5.80;99.90;;;;;;5071521;28;20445;-54
2021/10/16 03:29:59;;;;;;;14.70;10.17;;;5.80;99.90;;;;;;5071504;28;20444;-54
2021/10/16 03:32:26;;;;;;;12.30;9.17;;;5.80;99.90;;;;;;5062759;28;20471;-55
2021/10/16 03:34:53;;;;;;;16.13;10.70;;;5.70;99.90;;;;;;5057756;28;20449;-54
2021/10/16 03:37:21;;;;;;;17.57;10.77;;;5.70;99.90;;;;;;5059662;28;20991;-55
2021/10/16 03:39:48;;;;;;;15.00;10.30;;;5.70;99.90;;;;;;5057920;28;20484;-54
2021/10/16 03:42:15;;;;;;;15.20;10.37;;;5.60;99.90;;;;;;5058950;28;20992;-54
2021/10/16 03:44:42;;;;;;;15.20;10.40;;;5.30;99.90;;;;;;5064868;28;20456;-55
2021/10/16 03:47:09;;;;;;;16.57;11.37;;;5.40;99.90;;;;;;5058015;28;21016;-54
2021/10/16 03:49:36;;;;;;;15.60;10.03;;;5.40;99.90;;;;;;5055989;28;20440;-56
2021/10/16 03:52:04;;;;;;;16.30;10.60;;;5.50;99.90;;;;;;5075389;28;20529;-54
2021/10/16 03:54:32;;;;;;;14.50;10.23;;;5.50;99.90;;;;;;5077126;28;20451;-54
2021/10/16 03:56:59;;;;;;;15.63;10.13;;;5.40;99.90;;;;;;5076549;28;20499;-54
2021/10/16 03:59:27;;;;;;;12.77;9.53;;;5.50;99.90;;;;;;5057729;28;20483;-55
2021/10/16 04:01:54;;;;;;;14.70;9.57;;;5.50;99.90;;;;;;5070557;28;20474;-55
2021/10/16 04:04:21;;;;;;;16.63;10.53;;;5.50;99.90;;;;;;5057746;28;20449;-55
2021/10/16 04:06:48;;;;;;;16.00;10.70;;;5.50;99.90;;;;;;5072088;28;20461;-55
2021/10/16 04:09:15;;;;;;;15.13;10.00;;;5.50;99.90;;;;;;5069723;28;20450;-55
2021/10/16 04:11:44;;;;;;;14.23;10.20;;;5.50;99.90;;;;;;5068892;28;20549;-54
2021/10/16 04:14:11;;;;;;;13.50;9.83;;;5.50;99.90;;;;;;5078030;28;20496;-55
2021/10/16 04:16:38;;;;;;;15.40;10.03;;;5.50;99.90;;;;;;5075410;28;20449;-55
2021/10/16 04:19:05;;;;;;;15.43;10.17;;;5.40;99.90;;;;;;5062950;28;20455;-56
2021/10/16 04:21:32;;;;;;;12.90;9.40;;;5.40;99.90;;;;;;5053422;28;20536;-55
2021/10/16 04:24:00;;;;;;;14.47;9.70;;;5.50;99.90;;;;;;5054888;28;20471;-55
2021/10/16 04:26:27;;;;;;;16.50;9.83;;;5.40;99.90;;;;;;5055761;28;20545;-54
2021/10/16 04:28:56;;;;;;;14.07;9.57;;;5.40;99.90;;;;;;5055238;28;20902;-54
2021/10/16 04:31:23;;;;;;;16.80;10.00;;;5.40;99.90;;;;;;5052943;28;21028;-54
2021/10/16 04:33:50;;;;;;;20.50;10.63;;;5.40;99.90;;;;;;5055722;28;20529;-53
2021/10/16 04:36:17;;;;;;;14.60;9.40;;;5.30;99.90;;;;;;5052442;28;20456;-53
2021/10/16 04:38:47;;;;;;;13.10;10.10;;;5.30;99.90;;;;;;5056341;28;20455;-54
2021/10/16 04:41:15;;;;;;;13.20;9.07;;;5.30;99.90;;;;;;5056656;28;20479;-53
2021/10/16 04:43:42;;;;;;;15.30;9.90;;;5.40;99.90;;;;;;5054059;28;21011;-54
2021/10/16 04:46:11;;;;;;;13.23;9.77;;;5.40;99.90;;;;;;5046619;28;20837;-53
2021/10/16 04:48:39;;;;;;;17.27;11.00;;;5.30;99.90;;;;;;5050516;28;20452;-53
2021/10/16 04:51:07;;;;;;;18.17;11.80;;;5.30;99.90;;;;;;5053759;28;20464;-53
2021/10/16 04:53:34;;;;;;;16.23;11.37;;;5.20;99.90;;;;;;5050527;28;20471;-54
2021/10/16 04:56:01;;;;;;;19.33;11.33;;;5.30;99.90;;;;;;5054325;28;20509;-53
2021/10/16 04:58:28;;;;;;;19.23;11.70;;;5.20;99.90;;;;;;5054098;28;20840;-53
2021/10/16 05:00:55;;;;;;;19.30;12.50;;;5.20;99.90;;;;;;5053817;28;20573;-53
2021/10/16 05:03:23;;;;;;;16.40;10.80;;;5.00;99.90;;;;;;5053922;28;20958;-53
2021/10/16 05:05:50;;;;;;;15.27;10.43;;;5.10;99.90;;;;;;5053294;28;20526;-54
2021/10/16 05:08:17;;;;;;;19.90;12.03;;;5.10;99.90;;;;;;5052566;28;21032;-54
2021/10/16 05:10:44;;;;;;;18.03;11.30;;;5.10;99.90;;;;;;5051850;28;20922;-53
2021/10/16 05:13:11;;;;;;;18.47;10.27;;;5.10;99.90;;;;;;5051896;28;20501;-53
2021/10/16 05:15:38;;;;;;;16.10;10.93;;;5.10;99.90;;;;;;5051647;28;20455;-53
2021/10/16 05:18:05;;;;;;;16.37;10.73;;;5.10;99.90;;;;;;5053542;28;20475;-53
2021/10/16 05:20:34;;;;;;;12.40;9.20;;;5.00;99.90;;;;;;5053272;28;20499;-54
2021/10/16 05:23:01;;;;;;;14.87;10.23;;;5.00;99.90;;;;;;5053859;28;20879;-54
2021/10/16 05:25:28;;;;;;;16.03;10.33;;;5.00;99.90;;;;;;5053552;28;20941;-53
2021/10/16 05:27:55;;;;;;;17.57;12.13;;;5.00;99.90;;;;;;5053390;28;20505;-53
2021/10/16 05:30:22;;;;;;;18.67;12.20;;;5.00;99.90;;;;;;5052925;28;20941;-53
2021/10/16 05:32:49;;;;;;;21.40;12.20;;;5.00;99.90;;;;;;5052908;28;20455;-53
2021/10/16 05:35:16;;;;;;;24.00;13.80;;;5.00;99.90;;;;;;5053706;28;20455;-53
2021/10/16 05:37:45;;;;;;;21.13;14.83;;;4.80;99.90;;;;;;5053680;28;20447;-53
2021/10/16 05:40:12;;;;;;;19.90;13.80;;;4.80;99.90;;;;;;5053236;28;20525;-54
2021/10/16 05:42:39;;;;;;;21.03;14.13;;;4.80;99.90;;;;;;5053282;28;20462;-53
2021/10/16 05:45:07;;;;;;;20.27;12.87;;;4.80;99.90;;;;;;5058747;28;20448;-53
2021/10/16 05:47:36;;;;;;;16.27;11.50;;;4.80;99.90;;;;;;5052781;28;20509;-53
2021/10/16 05:50:05;;;;;;;26.10;14.67;;;4.70;99.90;;;;;;5052944;28;20489;-53
2021/10/16 05:52:32;;;;;;;31.30;18.30;;;4.70;99.90;;;;;;5051985;28;20653;-53
2021/10/16 05:55:01;;;;;;;23.97;16.07;;;4.60;99.90;;;;;;5050466;28;20456;-53
2021/10/16 05:57:28;;;;;;;26.77;16.00;;;4.60;99.90;;;;;;5050992;28;20439;-53
2021/10/16 05:59:55;;;;;;;26.67;14.17;;;4.60;99.90;;;;;;5052462;28;20475;-53
2021/10/16 06:02:22;;;;;;;20.37;13.97;;;4.60;99.90;;;;;;5034702;28;20479;-54
2021/10/16 06:04:49;;;;;;;21.27;12.97;;;4.70;99.90;;;;;;5053078;28;20448;-53
2021/10/16 06:07:16;;;;;;;21.50;13.30;;;4.70;99.90;;;;;;5052540;28;20452;-54
2021/10/16 06:09:43;;;;;;;20.20;12.30;;;4.70;99.90;;;;;;5052567;28;20872;-53
2021/10/16 06:12:12;;;;;;;17.70;12.10;;;4.80;99.90;;;;;;5052263;28;20472;-54
2021/10/16 06:14:39;;;;;;;16.47;11.00;;;4.90;99.90;;;;;;5052609;28;20452;-54
2021/10/16 06:17:06;;;;;;;18.77;10.00;;;4.90;99.90;;;;;;5051991;28;20513;-54
2021/10/16 06:19:33;;;;;;;24.67;10.83;;;4.90;99.90;;;;;;5051984;28;20514;-54
2021/10/16 06:22:00;;;;;;;16.73;10.50;;;4.80;99.90;;;;;;5052181;28;20475;-53
2021/10/16 06:24:27;;;;;;;18.47;10.97;;;4.90;99.90;;;;;;5052139;28;20456;-54
2021/10/16 06:26:54;;;;;;;18.23;10.70;;;4.90;99.90;;;;;;5052389;28;20447;-54
2021/10/16 06:29:23;;;;;;;17.07;11.40;;;5.00;99.90;;;;;;5052449;28;20959;-54
2021/10/16 06:31:50;;;;;;;18.43;12.23;;;5.00;99.90;;;;;;5052147;28;20539;-54
2021/10/16 06:34:17;;;;;;;19.57;12.47;;;5.10;99.90;;;;;;5052126;28;20522;-54
2021/10/16 06:36:44;;;;;;;22.43;13.50;;;5.20;99.90;;;;;;5052232;28;20811;-54
2021/10/16 06:39:11;;;;;;;19.83;12.67;;;5.30;99.90;;;;;;5050819;28;20455;-54
2021/10/16 06:41:38;;;;;;;17.80;12.43;;;5.40;99.90;;;;;;5051400;28;20487;-54
2021/10/16 06:44:06;;;;;;;16.33;11.10;;;5.50;99.90;;;;;;5051324;28;20502;-54
2021/10/16 06:46:34;;;;;;;18.10;11.57;;;5.50;99.90;;;;;;5051809;28;20454;-54
2021/10/16 06:49:01;;;;;;;16.20;10.50;;;5.60;99.90;;;;;;5052010;28;20455;-54
2021/10/16 06:51:28;;;;;;;13.97;10.30;;;5.60;99.90;;;;;;5049504;28;20471;-55
2021/10/16 06:53:55;;;;;;;15.10;9.57;;;5.50;99.90;;;;;;5043668;28;20471;-54
2021/10/16 06:56:22;;;;;;;16.02;10.55;;;5.60;99.90;;;;;;5058662;28;20513;-54
2021/10/16 06:58:49;;;;;;;17.20;10.77;;;5.60;99.90;;;;;;5088510;22;20228;-57
2021/10/16 07:01:16;;;;;;;17.80;11.03;;;5.70;99.90;;;;;;5088912;28;20528;-58
2021/10/16 07:03:45;;;;;;;16.93;10.73;;;5.70;99.90;;;;;;5085833;28;20903;-58
2021/10/16 07:06:13;;;;;;;13.30;8.60;;;5.80;99.90;;;;;;5085535;28;20454;-58
2021/10/16 07:08:40;;;;;;;15.63;8.93;;;5.90;99.90;;;;;;5091564;28;20531;-58
2021/10/16 07:11:07;;;;;;;13.43;8.30;;;6.00;99.90;;;;;;5091637;28;20507;-58
2021/10/16 07:13:34;;;;;;;12.23;9.20;;;6.10;99.90;;;;;;5091954;28;20446;-57
2021/10/16 07:16:01;;;;;;;10.50;8.50;;;6.10;99.90;;;;;;5091926;28;20868;-58
2021/10/16 07:18:29;;;;;;;19.33;9.50;;;6.20;99.90;;;;;;5091895;28;20474;-58
2021/10/16 07:20:58;;;;;;;16.50;10.17;;;6.30;99.90;;;;;;5091056;28;20523;-58
2021/10/16 07:23:27;;;;;;;16.40;10.53;;;6.50;99.90;;;;;;5088381;28;20450;-58
2021/10/16 07:25:55;;;;;;;13.77;9.77;;;6.70;99.90;;;;;;5092375;28;20444;-58
2021/10/16 07:28:22;;;;;;;15.03;9.90;;;6.90;99.90;;;;;;5091829;28;20511;-58
2021/10/16 07:30:50;;;;;;;13.50;9.40;;;7.10;99.90;;;;;;5091591;28;20450;-58
2021/10/16 07:33:17;;;;;;;12.50;9.47;;;7.40;99.90;;;;;;5091405;28;20509;-57
2021/10/16 07:35:44;;;;;;;14.10;9.37;;;7.50;99.90;;;;;;5091921;28;20500;-58
2021/10/16 07:38:14;;;;;;;15.00;10.07;;;7.60;99.90;;;;;;5091630;28;20527;-57
2021/10/16 07:40:41;;;;;;;14.80;9.30;;;7.90;99.90;;;;;;5091476;28;20478;-57
2021/10/16 07:43:09;;;;;;;18.00;8.50;;;8.10;99.90;;;;;;5091097;28;20453;-58
2021/10/16 07:45:36;;;;;;;13.10;8.53;;;8.30;99.90;;;;;;5091291;28;20450;-58
2021/10/16 07:48:03;;;;;;;15.53;9.27;;;8.40;99.90;;;;;;5090966;28;20474;-58
2021/10/16 07:50:30;;;;;;;14.37;8.83;;;8.40;99.90;;;;;;5091284;28;20498;-58
2021/10/16 07:52:57;;;;;;;13.73;8.97;;;8.50;99.90;;;;;;5091640;28;20450;-58
2021/10/16 07:55:25;;;;;;;11.70;8.53;;;8.80;99.90;;;;;;5091709;28;20527;-58
2021/10/16 07:57:52;;;;;;;14.80;9.70;;;8.90;99.90;;;;;;5091359;28;20501;-58
2021/10/16 08:00:19;;;;;;;14.10;9.13;;;9.00;99.90;;;;;;5090378;28;20445;-58
2021/10/16 08:02:46;;;;;;;14.30;9.17;;;9.00;99.90;;;;;;5091559;28;20446;-58
2021/10/16 08:05:14;;;;;;;11.17;8.60;;;9.20;99.90;;;;;;5091534;28;20938;-58
2021/10/16 08:07:42;;;;;;;14.13;8.60;;;9.30;99.90;;;;;;5091332;28;20506;-58
2021/10/16 08:10:10;;;;;;;11.23;8.00;;;9.40;99.90;;;;;;5091197;28;20882;-58
2021/10/16 08:12:39;;;;;;;10.07;8.23;;;9.50;99.90;;;;;;5090680;28;20890;-58
2021/10/16 08:15:07;;;;;;;11.37;8.07;;;9.70;99.90;;;;;;5090883;28;20507;-58
2021/10/16 08:17:34;;;;;;;13.10;8.43;;;9.70;99.90;;;;;;5093458;28;20522;-58
2021/10/16 08:20:01;;;;;;;11.93;8.43;;;9.80;99.90;;;;;;5096891;28;20469;-58
2021/10/16 08:22:29;;;;;;;12.87;8.37;;;10.00;99.90;;;;;;5077180;28;20901;-58
2021/10/16 08:24:56;;;;;;;10.43;8.20;;;10.00;99.90;;;;;;5077244;28;20453;-58
2021/10/16 08:27:23;;;;;;;11.60;7.83;;;9.80;99.90;;;;;;5093702;28;20449;-57
2021/10/16 08:29:51;;;;;;;13.57;9.00;;;9.80;99.90;;;;;;5095036;28;20469;-58
2021/10/16 08:32:20;;;;;;;11.97;8.10;;;9.90;99.90;;;;;;5094647;28;20498;-58
2021/10/16 08:34:47;;;;;;;12.10;8.30;;;9.90;99.90;;;;;;5094545;28;20513;-58
2021/10/16 08:37:14;;;;;;;15.73;9.97;;;9.90;99.90;;;;;;5095013;28;20449;-59
2021/10/16 08:39:41;;;;;;;11.10;8.03;;;10.50;99.90;;;;;;5094359;28;20523;-59
2021/10/16 08:42:08;;;;;;;10.00;7.50;;;11.30;99.90;;;;;;5086468;28;20922;-59
2021/10/16 08:44:36;;;;;;;8.37;6.47;;;12.20;99.90;;;;;;5090881;28;20468;-59
2021/10/16 08:47:05;;;;;;;11.83;6.77;;;13.20;99.90;;;;;;5094589;28;20453;-59
2021/10/16 08:49:33;;;;;;;8.60;6.70;;;13.80;99.90;;;;;;5094543;28;21062;-59
2021/10/16 08:52:00;;;;;;;8.93;6.50;;;14.40;99.90;;;;;;5094387;28;20901;-58
2021/10/16 08:54:27;;;;;;;11.70;7.17;;;14.40;99.90;;;;;;5093728;28;20940;-58
2021/10/16 08:56:54;;;;;;;10.20;6.50;;;14.80;99.90;;;;;;5093825;28;20508;-58
2021/10/16 08:59:21;;;;;;;7.43;5.93;;;15.20;99.90;;;;;;5094305;28;20530;-58
2021/10/16 09:02:06;;;;;;;7.30;5.87;;;15.00;99.90;;;;;;5088461;28;20481;-58
2021/10/16 09:04:35;;;;;;;7.53;5.53;;;15.40;99.90;;;;;;5087747;28;20450;-59
2021/10/16 09:07:17;;;;;;;6.83;5.83;;;16.00;99.90;;;;;;5094350;28;20537;-58
2021/10/16 09:09:44;;;;;;;7.13;5.80;;;16.10;99.90;;;;;;5092573;28;20491;-59
2021/10/16 09:12:12;;;;;;;8.47;6.70;;;16.40;99.90;;;;;;5093547;28;20445;-59
2021/10/16 09:14:45;;;;;;;7.80;6.57;;;16.40;99.90;;;;;;5093512;28;20450;-59
2021/10/16 09:17:16;;;;;;;9.23;7.03;;;16.00;99.90;;;;;;5094063;28;20462;-59
2021/10/16 09:19:43;;;;;;;7.80;6.60;;;16.30;99.90;;;;;;5093813;28;20896;-58
2021/10/16 09:22:12;;;;;;;9.70;7.00;;;16.50;99.90;;;;;;5093496;28;20478;-58
2021/10/16 09:24:41;;;;;;;8.20;7.20;;;15.90;99.90;;;;;;5090013;28;20442;-58
2021/10/16 09:27:14;;;;;;;7.40;6.60;;;16.00;99.90;;;;;;5094123;28;20495;-59
2021/10/16 09:29:43;;;;;;;8.13;7.00;;;16.20;99.90;;;;;;5096804;28;20548;-58
2021/10/16 09:32:12;;;;;;;9.00;6.70;;;15.50;99.90;;;;;;5093564;28;20442;-58
2021/10/16 09:34:42;;;;;;;12.00;7.50;;;15.00;99.90;;;;;;5092997;28;20446;-58
2021/10/16 09:37:11;;;;;;;8.90;6.77;;;14.30;99.90;;;;;;5093107;28;20445;-59
2021/10/16 09:39:39;;;;;;;8.33;6.90;;;15.00;99.90;;;;;;5093623;28;20469;-58
2021/10/16 09:42:08;;;;;;;10.30;7.30;;;15.50;99.90;;;;;;5093363;28;20474;-58
2021/10/16 09:44:38;;;;;;;8.13;7.30;;;15.50;99.90;;;;;;5093395;28;20562;-58
2021/10/16 09:47:15;;;;;;;10.70;8.57;;;15.00;99.90;;;;;;5093501;28;20446;-58
2021/10/16 09:49:45;;;;;;;14.33;10.47;;;15.30;99.90;;;;;;5092497;28;20470;-58
2021/10/16 09:52:13;;;;;;;13.13;9.70;;;15.70;99.90;;;;;;5093215;28;20450;-59
2021/10/16 09:54:42;;;;;;;12.23;8.40;;;15.90;99.90;;;;;;5093029;28;20507;-58
2021/10/16 09:57:10;;;;;;;13.93;8.77;;;15.30;99.90;;;;;;5093424;28;20442;-59
2021/10/16 09:59:39;;;;;;;15.83;10.60;;;15.20;99.90;;;;;;5093052;28;20477;-59
2021/10/16 10:02:07;;;;;;;15.40;11.37;;;14.60;99.90;;;;;;5091543;28;20489;-58
2021/10/16 10:04:37;;;;;;;16.60;10.30;;;13.80;99.90;;;;;;5092898;28;20446;-58
2021/10/16 10:07:06;;;;;;;18.13;11.00;;;14.30;99.90;;;;;;5093345;28;20454;-58
2021/10/16 10:09:34;;;;;;;16.23;11.20;;;14.00;99.90;;;;;;5093139;28;20519;-58
2021/10/16 10:12:02;;;;;;;25.23;11.50;;;13.90;99.90;;;;;;5092892;28;20446;-58
2021/10/16 10:14:29;;;;;;;16.53;10.67;;;13.80;99.90;;;;;;5092954;28;20827;-58
2021/10/16 10:17:00;;;;;;;17.33;10.70;;;14.00;99.90;;;;;;5092267;28;20446;-58
2021/10/16 10:19:29;;;;;;;15.33;10.70;;;14.10;99.90;;;;;;5092905;28;21186;-59
2021/10/16 10:21:57;;;;;;;13.70;9.87;;;14.20;99.90;;;;;;5092764;28;20527;-58
2021/10/16 10:24:37;;;;;;;12.60;9.50;;;14.20;99.90;;;;;;5092135;28;20507;-58
2021/10/16 10:27:07;;;;;;;15.57;10.07;;;14.00;99.90;;;;;;5092865;28;20536;-58
2021/10/16 10:29:36;;;;;;;13.90;9.93;;;13.70;99.90;;;;;;5092466;28;20531;-58
2021/10/16 10:32:06;;;;;;;16.03;10.20;;;13.10;99.90;;;;;;5092670;28;20537;-58
2021/10/16 10:34:42;;;;;;;13.50;9.67;;;12.70;99.90;;;;;;5092799;28;20450;-59
2021/10/16 10:37:11;;;;;;;14.53;9.20;;;12.80;99.90;;;;;;5092632;28;20510;-59
2021/10/16 10:39:51;;;;;;;15.07;10.37;;;13.10;99.90;;;;;;5092324;28;20470;-58
2021/10/16 10:42:50;;;;;;;12.40;9.10;;;13.40;99.90;;;;;;5091575;28;20489;-58
2021/10/16 10:45:38;;;;;;;13.60;9.07;;;13.10;99.90;;;;;;5092517;28;20466;-58
2021/10/16 10:48:16;;;;;;;13.93;9.13;;;13.60;99.90;;;;;;5092363;28;20975;-58
2021/10/16 10:50:59;;;;;;;13.03;9.37;;;13.70;99.90;;;;;;5092175;28;20498;-58
2021/10/16 10:53:40;;;;;;;15.53;9.90;;;13.80;99.90;;;;;;5092365;28;20996;-58
2021/10/16 10:56:19;;;;;;;14.10;9.60;;;13.70;99.90;;;;;;5092301;28;20442;-58
2021/10/16 10:59:03;;;;;;;13.33;9.93;;;13.40;99.90;;;;;;5071929;28;21238;-58
2021/10/16 11:02:01;;;;;;;12.60;9.23;;;13.40;99.90;;;;;;5081582;28;20470;-58
2021/10/16 11:04:39;;;;;;;14.23;9.60;;;13.50;99.90;;;;;;5091798;28;20454;-57
2021/10/16 11:07:10;;;;;;;13.63;9.37;;;13.40;99.90;;;;;;5089613;28;20450;-58
2021/10/16 11:09:38;;;;;;;13.97;9.67;;;13.60;99.90;;;;;;5092136;28;20544;-58
2021/10/16 11:12:08;;;;;;;11.90;8.70;;;13.40;99.90;;;;;;5091695;28;20446;-58
2021/10/16 11:14:36;;;;;;;12.87;9.83;;;13.40;99.90;;;;;;5091720;28;20533;-59
2021/10/16 11:17:05;;;;;;;14.73;10.90;;;13.50;99.90;;;;;;5090303;28;20504;-58
2021/10/16 11:19:46;;;;;;;15.13;10.13;;;13.30;99.90;;;;;;5091705;28;20523;-58
2021/10/16 11:22:13;;;;;;;14.33;9.60;;;13.30;99.90;;;;;;5091653;28;20477;-58
2021/10/16 11:24:41;;;;;;;16.90;9.93;;;13.20;99.90;;;;;;5091448;28;20499;-58
2021/10/16 11:27:09;;;;;;;14.53;10.00;;;13.30;99.90;;;;;;5091574;28;20537;-58
2021/10/16 11:29:38;;;;;;;14.03;9.90;;;13.60;99.90;;;;;;5091801;28;20860;-58
2021/10/16 11:32:12;;;;;;;13.33;9.77;;;13.60;99.90;;;;;;5091670;28;21170;-58
2021/10/16 11:34:39;;;;;;;13.50;9.53;;;13.10;99.90;;;;;;5091885;28;20523;-58
2021/10/16 11:37:08;;;;;;;13.10;9.77;;;12.90;99.90;;;;;;5074411;28;20944;-58
2021/10/16 11:39:35;;;;;;;13.00;9.37;;;13.00;99.90;;;;;;5088186;28;20523;-58
2021/10/16 11:42:04;;;;;;;14.13;9.50;;;13.10;99.90;;;;;;5090471;28;20474;-58
2021/10/16 11:44:32;;;;;;;12.27;8.60;;;13.00;99.90;;;;;;5091488;28;20450;-58
2021/10/16 11:47:01;;;;;;;13.50;9.10;;;13.20;99.90;;;;;;5090611;28;20504;-58
2021/10/16 11:49:29;;;;;;;12.00;8.90;;;13.40;99.90;;;;;;5090235;28;20504;-58
2021/10/16 11:51:57;;;;;;;21.00;9.57;;;13.60;99.90;;;;;;5091360;28;20857;-58
2021/10/16 11:54:28;;;;;;;13.53;9.37;;;13.90;99.90;;;;;;5095074;28;21811;-59
2021/10/16 11:56:56;;;;;;;14.10;9.87;;;14.00;99.90;;;;;;5094561;28;21215;-58
2021/10/16 11:59:23;;;;;;;11.67;8.30;;;14.00;99.90;;;;;;5095252;28;20478;-58
2021/10/16 12:01:52;;;;;;;15.73;9.00;;;14.20;99.90;;;;;;5094538;28;20477;-59
2021/10/16 12:04:19;;;;;;;13.07;8.37;;;14.10;99.90;;;;;;5095607;28;20441;-58
2021/10/16 12:06:50;;;;;;;12.37;9.33;;;14.30;99.90;;;;;;5094200;28;20445;-59
2021/10/16 12:09:19;;;;;;;11.73;8.53;;;14.40;99.90;;;;;;5095205;28;20465;-58
2021/10/16 12:11:47;;;;;;;14.27;8.30;;;14.20;99.90;;;;;;5094883;28;20447;-58
2021/10/16 12:14:22;;;;;;;11.30;8.73;;;14.30;99.90;;;;;;5095390;28;21015;-58
2021/10/16 12:16:51;;;;;;;14.17;9.23;;;14.30;99.90;;;;;;5095189;28;20585;-58
2021/10/16 12:19:19;;;;;;;17.03;8.40;;;14.40;99.90;;;;;;5095128;28;20461;-58
2021/10/16 12:21:48;;;;;;;13.23;8.90;;;14.60;99.90;;;;;;5094826;28;20450;-58
2021/10/16 12:24:16;;;;;;;14.73;9.33;;;14.60;99.90;;;;;;5095431;28;20449;-58
2021/10/16 12:26:45;;;;;;;12.17;8.67;;;14.40;99.90;;;;;;5095549;28;20456;-58
2021/10/16 12:29:26;;;;;;;13.73;9.80;;;14.20;99.90;;;;;;5094914;28;20507;-58
2021/10/16 12:31:55;;;;;;;13.90;9.13;;;14.00;99.90;;;;;;5095006;28;20481;-58
2021/10/16 12:34:23;;;;;;;12.90;9.23;;;14.00;99.90;;;;;;5095025;28;20494;-58
2021/10/16 12:36:54;;;;;;;19.50;8.73;;;13.90;99.90;;;;;;5095153;28;20445;-58
2021/10/16 12:39:30;;;;;;;12.50;8.93;;;14.00;99.90;;;;;;5094528;28;20478;-58
2021/10/16 12:41:58;;;;;;;16.67;10.07;;;14.20;99.90;;;;;;5092683;28;20530;-58
2021/10/16 12:44:28;;;;;;;13.63;9.40;;;14.40;99.90;;;;;;5093428;28;20507;-58